Terminal Aerodrome Forecast
Issued by NWS Paducah, KY

Home | Current Version | Previous Version | Text Only | Print | Product List | Glossary On
Versions: 1 2 3 4 5 6 7 8 9 10 11 12 13 14 15 16 17
000
FTUS43 KPAH 240300 AAA
TAFPAH
TAF AMD
KPAH 240313Z 2403/2424 22012KT 5SM -DZ OVC005
     FM240600 21013G21KT 6SM -DZ OVC005
     FM240800 23018G25KT P6SM OVC007
     FM241400 26017G24KT P6SM BKN035=

USA.gov is the U.S. government's official web portal to all federal, state and local government web resources and services.